DEDDG EDLA-EDDG
Flight info
| Callsign | DEDDG |
|---|---|
| Flight time | 0h 24m |
| Altitude | 2000 |
| Route | EDDG/07 VFR |
| Aircraft | C172/L-S/L |
Departure
| Time | 2026-04-27 15:34 |
|---|---|
| Airport | Arnsberg-Menden Airfield (EDLA) |
Arrival
| Time | 2026-04-27 15:58 |
|---|---|
| Airport | Münster Osnabrück Airport (EDDG) |
| Time | Latitude | Longitude | Altitude | Speed | Heading |
|---|---|---|---|---|---|
| 2026-04-27 15:34 | 51.61537 | 7.61180 | 1998 ft | 98 kts | 9° |
| 2026-04-27 15:34 | 51.62206 | 7.61288 | 1989 ft | 96 kts | 10° |
| 2026-04-27 15:34 | 51.62866 | 7.61388 | 2007 ft | 97 kts | 9° |
| 2026-04-27 15:34 | 51.63550 | 7.61488 | 2006 ft | 99 kts | 8° |
| 2026-04-27 15:35 | 51.64236 | 7.61586 | 2009 ft | 101 kts | 10° |
| 2026-04-27 15:35 | 51.64948 | 7.61688 | 2009 ft | 105 kts | 8° |
| 2026-04-27 15:35 | 51.65666 | 7.61785 | 2008 ft | 106 kts | 11° |
| 2026-04-27 15:35 | 51.66400 | 7.61888 | 2008 ft | 106 kts | 10° |
| 2026-04-27 15:36 | 51.67137 | 7.61990 | 2001 ft | 105 kts | 9° |
| 2026-04-27 15:36 | 51.67858 | 7.62090 | 1995 ft | 104 kts | 9° |
| 2026-04-27 15:36 | 51.68584 | 7.62189 | 2004 ft | 105 kts | 8° |
| 2026-04-27 15:36 | 51.69305 | 7.62290 | 1991 ft | 102 kts | 9° |
| 2026-04-27 15:37 | 51.70001 | 7.62386 | 1997 ft | 100 kts | 10° |
| 2026-04-27 15:37 | 51.70702 | 7.62486 | 1998 ft | 101 kts | 9° |
| 2026-04-27 15:37 | 51.71403 | 7.62583 | 2006 ft | 103 kts | 9° |
| 2026-04-27 15:37 | 51.72119 | 7.62682 | 2002 ft | 102 kts | 10° |
| 2026-04-27 15:38 | 51.72830 | 7.62776 | 2003 ft | 103 kts | 8° |
| 2026-04-27 15:38 | 51.73544 | 7.62881 | 2007 ft | 105 kts | 11° |
| 2026-04-27 15:38 | 51.74267 | 7.62981 | 2012 ft | 104 kts | 8° |
| 2026-04-27 15:38 | 51.74988 | 7.63081 | 2009 ft | 102 kts | 9° |
| 2026-04-27 15:39 | 51.75712 | 7.63181 | 2004 ft | 105 kts | 8° |
| 2026-04-27 15:39 | 51.76435 | 7.63281 | 2010 ft | 105 kts | 8° |
| 2026-04-27 15:39 | 51.77166 | 7.63385 | 2015 ft | 106 kts | 8° |
| 2026-04-27 15:39 | 51.77899 | 7.63487 | 2003 ft | 103 kts | 8° |
| 2026-04-27 15:40 | 51.78610 | 7.63585 | 1996 ft | 102 kts | 9° |
| 2026-04-27 15:40 | 51.79311 | 7.63687 | 1996 ft | 100 kts | 9° |
| 2026-04-27 15:40 | 51.79992 | 7.63778 | 1992 ft | 95 kts | 9° |
| 2026-04-27 15:40 | 51.80641 | 7.63867 | 1997 ft | 93 kts | 7° |
| 2026-04-27 15:41 | 51.81310 | 7.63961 | 2009 ft | 99 kts | 9° |
| 2026-04-27 15:41 | 51.82013 | 7.64062 | 2013 ft | 103 kts | 8° |
| 2026-04-27 15:41 | 51.82720 | 7.64159 | 2014 ft | 102 kts | 7° |
| 2026-04-27 15:41 | 51.83433 | 7.64257 | 2005 ft | 103 kts | 7° |
| 2026-04-27 15:42 | 51.84137 | 7.64358 | 2002 ft | 99 kts | 8° |
| 2026-04-27 15:42 | 51.84808 | 7.64450 | 1994 ft | 95 kts | 8° |
| 2026-04-27 15:42 | 51.85469 | 7.64543 | 2001 ft | 96 kts | 9° |
| 2026-04-27 15:42 | 51.86138 | 7.64636 | 2002 ft | 96 kts | 8° |
| 2026-04-27 15:43 | 51.86807 | 7.64730 | 2003 ft | 96 kts | 8° |
| 2026-04-27 15:43 | 51.87473 | 7.64824 | 2003 ft | 97 kts | 9° |
| 2026-04-27 15:43 | 51.88151 | 7.64920 | 2017 ft | 101 kts | 8° |
| 2026-04-27 15:43 | 51.88864 | 7.65016 | 2007 ft | 103 kts | 10° |
| 2026-04-27 15:44 | 51.89577 | 7.65119 | 2017 ft | 104 kts | 9° |
| 2026-04-27 15:44 | 51.90308 | 7.65221 | 2018 ft | 109 kts | 9° |
| 2026-04-27 15:44 | 51.91077 | 7.65332 | 2004 ft | 108 kts | 9° |
| 2026-04-27 15:44 | 51.91794 | 7.65429 | 2004 ft | 102 kts | 8° |
| 2026-04-27 15:45 | 51.92274 | 7.65497 | 2003 ft | 103 kts | 9° |
| 2026-04-27 15:45 | 51.93912 | 7.65725 | 2007 ft | 105 kts | 9° |
| 2026-04-27 15:45 | 51.94645 | 7.65828 | 2006 ft | 106 kts | 9° |
| 2026-04-27 15:46 | 51.95363 | 7.65926 | 2001 ft | 103 kts | 9° |
| 2026-04-27 15:46 | 51.96073 | 7.66030 | 2013 ft | 104 kts | 9° |
| 2026-04-27 15:46 | 51.96802 | 7.66131 | 2009 ft | 105 kts | 8° |
| 2026-04-27 15:46 | 51.97525 | 7.66233 | 2003 ft | 103 kts | 9° |
| 2026-04-27 15:47 | 51.98227 | 7.66361 | 2003 ft | 101 kts | 12° |
| 2026-04-27 15:47 | 51.98932 | 7.66518 | 2006 ft | 104 kts | 12° |
| 2026-04-27 15:47 | 51.99651 | 7.66705 | 2006 ft | 105 kts | 13° |
| 2026-04-27 15:47 | 52.00371 | 7.66873 | 2007 ft | 105 kts | 12° |
| 2026-04-27 15:48 | 52.01078 | 7.67049 | 2006 ft | 101 kts | 12° |
| 2026-04-27 15:48 | 52.01780 | 7.67221 | 2008 ft | 104 kts | 12° |
| 2026-04-27 15:48 | 52.02486 | 7.67410 | 2007 ft | 101 kts | 12° |
| 2026-04-27 15:49 | 52.03895 | 7.67758 | 2030 ft | 103 kts | 13° |
| 2026-04-27 15:49 | 52.04611 | 7.67884 | 2027 ft | 104 kts | 359° |
| 2026-04-27 15:49 | 52.05343 | 7.67628 | 1911 ft | 111 kts | 349° |
| 2026-04-27 15:49 | 52.06071 | 7.67271 | 1868 ft | 109 kts | 347° |
| 2026-04-27 15:50 | 52.06796 | 7.66905 | 1763 ft | 109 kts | 346° |
| 2026-04-27 15:50 | 52.07522 | 7.66502 | 1646 ft | 111 kts | 345° |
| 2026-04-27 15:50 | 52.08254 | 7.66077 | 1497 ft | 112 kts | 347° |
| 2026-04-27 15:50 | 52.09002 | 7.65722 | 1374 ft | 112 kts | 348° |
| 2026-04-27 15:51 | 52.09751 | 7.65370 | 1213 ft | 113 kts | 348° |
| 2026-04-27 15:51 | 52.10509 | 7.65042 | 1083 ft | 111 kts | 351° |
| 2026-04-27 15:51 | 52.11244 | 7.64815 | 865 ft | 102 kts | 357° |
| 2026-04-27 15:51 | 52.11900 | 7.64766 | 738 ft | 88 kts | 7° |
| 2026-04-27 15:52 | 52.12440 | 7.64984 | 642 ft | 76 kts | 27° |
| 2026-04-27 15:52 | 52.12809 | 7.65504 | 495 ft | 66 kts | 55° |
| 2026-04-27 15:52 | 52.12960 | 7.66081 | 355 ft | 62 kts | 71° |
| 2026-04-27 15:52 | 52.13090 | 7.66721 | 238 ft | 56 kts | 71° |
| 2026-04-27 15:53 | 52.13223 | 7.67341 | 160 ft | 55 kts | 72° |
| 2026-04-27 15:53 | 52.13338 | 7.67888 | 161 ft | 64 kts | 71° |
| 2026-04-27 15:53 | 52.13493 | 7.68642 | 308 ft | 73 kts | 72° |
| 2026-04-27 15:53 | 52.13660 | 7.69428 | 528 ft | 78 kts | 67° |
| 2026-04-27 15:54 | 52.13866 | 7.70286 | 691 ft | 86 kts | 68° |
| 2026-04-27 15:54 | 52.13911 | 7.71219 | 929 ft | 89 kts | 108° |
| 2026-04-27 15:54 | 52.13424 | 7.71905 | 1068 ft | 99 kts | 153° |
| 2026-04-27 15:54 | 52.12773 | 7.72284 | 1210 ft | 101 kts | 164° |
| 2026-04-27 15:55 | 52.12071 | 7.71908 | 1158 ft | 116 kts | 224° |
| 2026-04-27 15:55 | 52.11794 | 7.71147 | 1172 ft | 118 kts | 251° |
| 2026-04-27 15:55 | 52.11365 | 7.69485 | 1191 ft | 122 kts | 247° |
| 2026-04-27 15:55 | 52.11027 | 7.68235 | 1166 ft | 117 kts | 250° |
| 2026-04-27 15:56 | 52.10739 | 7.67054 | 1128 ft | 108 kts | 253° |
| 2026-04-27 15:56 | 52.10755 | 7.65934 | 1038 ft | 97 kts | 310° |
| 2026-04-27 15:56 | 52.11263 | 7.65397 | 969 ft | 82 kts | 342° |
| 2026-04-27 15:56 | 52.11749 | 7.65088 | 858 ft | 70 kts | 347° |
| 2026-04-27 15:57 | 52.12221 | 7.64855 | 737 ft | 72 kts | 349° |
| 2026-04-27 15:57 | 52.12667 | 7.65037 | 582 ft | 69 kts | 47° |
| 2026-04-27 15:57 | 52.12879 | 7.65709 | 450 ft | 62 kts | 69° |
| 2026-04-27 15:57 | 52.13013 | 7.66356 | 300 ft | 59 kts | 70° |
| 2026-04-27 15:58 | 52.13147 | 7.66987 | 196 ft | 62 kts | 72° |
| 2026-04-27 15:58 | 52.13271 | 7.67580 | 160 ft | 42 kts | 68° |
| 2026-04-27 15:58 | 52.13346 | 7.67924 | 162 ft | 24 kts | 71° |
| 2026-04-27 15:58 | 52.13388 | 7.68127 | 163 ft | 15 kts | 70° |
| 2026-04-27 15:59 | 52.13372 | 7.68254 | 163 ft | 11 kts | 138° |
| 2026-04-27 15:59 | 52.13307 | 7.68292 | 162 ft | 7 kts | 161° |
| 2026-04-27 15:59 | 52.13277 | 7.68308 | 162 ft | 4 kts | 162° |
| 2026-04-27 15:59 | 52.13233 | 7.68332 | 162 ft | 9 kts | 160° |
| 2026-04-27 16:00 | 52.13169 | 7.68369 | 162 ft | 10 kts | 159° |
| 2026-04-27 16:00 | 52.13134 | 7.68371 | 162 ft | 7 kts | 243° |
| 2026-04-27 16:00 | 52.13129 | 7.68319 | 162 ft | 0 kts | 272° |